Time;durP1;ratioP1;P1;durP2;ratioP2;P2;SDS_P1;SDS_P2;PMS_P1;PMS_P2;Temp;Humidity;BMP_temperature;BMP_pressure;BME280_temperature;BME280_humidity;BME280_pressure;Samples;Min_cycle;Max_cycle;Signal;HPM_P1;HPM_P2
2021/09/25 00:00:39;;;;;;;10.70;7.90;;;;;;;;;;5069681;28;20545;-69
2021/09/25 00:03:07;;;;;;;8.90;7.47;;;;;;;;;;5070705;28;20532;-72
2021/09/25 00:05:35;;;;;;;10.47;8.60;;;;;;;;;;5069852;28;20456;-68
2021/09/25 00:08:02;;;;;;;10.27;8.00;;;;;;;;;;5070154;28;20552;-69
2021/09/25 00:10:31;;;;;;;10.80;7.40;;;;;;;;;;5070140;28;20446;-73
2021/09/25 00:12:58;;;;;;;11.50;7.27;;;;;;;;;;5071051;28;20532;-68
2021/09/25 00:15:29;;;;;;;10.23;7.90;;;;;;;;;;5069907;28;20644;-68
2021/09/25 00:17:58;;;;;;;9.10;6.70;;;;;;;;;;5070819;28;20457;-68
2021/09/25 00:20:25;;;;;;;9.70;7.20;;;;;;;;;;5070132;28;20457;-68
2021/09/25 00:22:52;;;;;;;8.90;7.70;;;;;;;;;;5069875;28;20510;-69
2021/09/25 00:25:20;;;;;;;10.43;8.30;;;;;;;;;;5070053;28;20473;-69
2021/09/25 00:27:47;;;;;;;9.93;7.97;;;;;;;;;;5069389;28;20983;-69
2021/09/25 00:30:14;;;;;;;10.80;8.50;;;;;;;;;;5070033;28;20894;-70
2021/09/25 00:32:42;;;;;;;8.60;7.60;;;;;;;;;;5069036;28;20568;-68
2021/09/25 00:35:11;;;;;;;11.10;7.37;;;;;;;;;;5069411;28;20437;-68
2021/09/25 00:37:39;;;;;;;9.50;7.30;;;;;;;;;;5068965;28;20965;-68
2021/09/25 00:40:07;;;;;;;8.60;6.73;;;;;;;;;;5064579;28;20456;-72
2021/09/25 00:42:34;;;;;;;8.20;6.73;;;;;;;;;;5068236;28;20454;-70
2021/09/25 00:45:01;;;;;;;7.93;6.97;;;;;;;;;;5069143;28;20855;-69
2021/09/25 00:47:28;;;;;;;7.57;6.77;;;;;;;;;;5070326;28;20452;-69
2021/09/25 00:49:56;;;;;;;10.73;7.33;;;;;;;;;;5069199;28;20540;-68
2021/09/25 00:52:24;;;;;;;8.97;6.50;;;;;;;;;;5070325;28;20573;-68
2021/09/25 00:54:51;;;;;;;11.57;7.80;;;;;;;;;;5069340;28;20463;-69
2021/09/25 00:57:19;;;;;;;11.43;6.97;;;;;;;;;;5069792;28;20945;-69
2021/09/25 00:59:46;;;;;;;8.73;6.87;;;;;;;;;;5068885;28;20445;-73
2021/09/25 01:02:17;;;;;;;9.03;6.43;;;;;;;;;;5069688;28;20544;-68
2021/09/25 01:04:44;;;;;;;9.43;6.97;;;;;;;;;;5069554;28;20507;-68
2021/09/25 01:07:11;;;;;;;9.80;6.57;;;;;;;;;;5070205;28;21002;-68
2021/09/25 01:09:40;;;;;;;9.97;7.20;;;;;;;;;;5069024;28;20528;-68
2021/09/25 01:12:07;;;;;;;6.73;6.10;;;;;;;;;;5069366;28;20508;-68
2021/09/25 01:14:35;;;;;;;8.90;6.47;;;;;;;;;;5068967;28;20536;-68
2021/09/25 01:17:05;;;;;;;9.37;6.70;;;;;;;;;;5069962;28;20552;-68
2021/09/25 01:19:33;;;;;;;8.10;6.53;;;;;;;;;;5068461;28;20953;-68
2021/09/25 01:22:01;;;;;;;8.60;5.90;;;;;;;;;;5069730;28;20892;-68
2021/09/25 01:24:29;;;;;;;7.70;6.23;;;;;;;;;;5069399;28;20502;-68
2021/09/25 01:26:56;;;;;;;8.60;6.80;;;;;;;;;;5070124;28;20537;-68
2021/09/25 01:29:24;;;;;;;7.93;6.47;;;;;;;;;;5069782;28;20528;-68
2021/09/25 01:31:51;;;;;;;8.93;6.20;;;;;;;;;;5069301;28;20477;-68
2021/09/25 01:34:18;;;;;;;10.70;7.00;;;;;;;;;;5069401;28;20481;-68
2021/09/25 01:36:46;;;;;;;8.33;6.10;;;;;;;;;;5069109;28;20544;-68
2021/09/25 01:39:14;;;;;;;7.63;5.77;;;;;;;;;;5070948;28;20532;-68
2021/09/25 01:41:41;;;;;;;7.67;6.60;;;;;;;;;;5068860;28;20826;-68
2021/09/25 01:44:09;;;;;;;8.07;6.03;;;;;;;;;;5072228;28;20819;-68
2021/09/25 01:46:36;;;;;;;8.20;7.20;;;;;;;;;;5069114;28;20532;-69
2021/09/25 01:49:03;;;;;;;6.73;5.50;;;;;;;;;;5069921;28;20555;-68
2021/09/25 01:51:30;;;;;;;8.97;7.13;;;;;;;;;;5068629;28;20477;-71
2021/09/25 01:53:57;;;;;;;8.20;6.77;;;;;;;;;;5068808;28;20492;-68
2021/09/25 01:56:26;;;;;;;6.70;5.43;;;;;;;;;;5069571;28;20450;-68
2021/09/25 01:58:53;;;;;;;8.23;6.60;;;;;;;;;;5068414;28;20536;-68
2021/09/25 02:01:20;;;;;;;12.60;6.30;;;;;;;;;;5068539;28;20541;-68
2021/09/25 02:03:47;;;;;;;9.57;6.47;;;;;;;;;;5068186;28;20464;-68
2021/09/25 02:06:14;;;;;;;9.90;7.13;;;;;;;;;;5068887;28;20504;-69
2021/09/25 02:08:43;;;;;;;9.10;7.07;;;;;;;;;;5068611;28;20450;-68
2021/09/25 02:11:11;;;;;;;8.00;6.20;;;;;;;;;;5068622;28;20457;-68
2021/09/25 02:13:39;;;;;;;7.87;5.80;;;;;;;;;;5068729;28;20473;-68
2021/09/25 02:16:06;;;;;;;8.40;6.30;;;;;;;;;;5068987;28;20981;-70
2021/09/25 02:18:34;;;;;;;7.70;6.70;;;;;;;;;;5068438;28;20445;-68
2021/09/25 02:21:01;;;;;;;8.57;6.67;;;;;;;;;;5068176;28;20449;-68
2021/09/25 02:23:28;;;;;;;9.40;6.10;;;;;;;;;;5067892;28;20623;-68
2021/09/25 02:25:56;;;;;;;7.60;5.90;;;;;;;;;;5068910;28;20951;-68
2021/09/25 02:28:23;;;;;;;7.60;5.83;;;;;;;;;;5069205;28;20480;-70
2021/09/25 02:30:51;;;;;;;6.03;5.33;;;;;;;;;;5070437;28;20522;-68
2021/09/25 02:33:19;;;;;;;8.40;5.60;;;;;;;;;;5072980;28;20844;-68
2021/09/25 02:35:46;;;;;;;7.40;5.87;;;;;;;;;;5071396;28;20453;-71
2021/09/25 02:38:13;;;;;;;7.03;5.23;;;;;;;;;;5072186;28;20436;-68
2021/09/25 02:40:40;;;;;;;7.37;5.80;;;;;;;;;;5071840;28;20528;-68
2021/09/25 02:43:07;;;;;;;6.00;5.40;;;;;;;;;;5072559;28;20778;-68
2021/09/25 02:45:35;;;;;;;6.70;5.63;;;;;;;;;;5071767;28;20459;-68
2021/09/25 02:48:04;;;;;;;7.00;5.70;;;;;;;;;;5068368;28;20461;-68
2021/09/25 02:50:31;;;;;;;9.30;6.50;;;;;;;;;;5071394;28;20460;-73
2021/09/25 02:52:58;;;;;;;7.53;5.80;;;;;;;;;;5072351;28;20564;-68
2021/09/25 02:55:25;;;;;;;6.40;5.47;;;;;;;;;;5070992;28;20445;-68
2021/09/25 02:57:53;;;;;;;7.47;5.40;;;;;;;;;;5071648;28;20536;-68
2021/09/25 03:00:20;;;;;;;6.87;6.17;;;;;;;;;;5071226;28;20812;-68
2021/09/25 03:02:48;;;;;;;6.90;5.03;;;;;;;;;;5071874;28;20454;-68
2021/09/25 03:05:17;;;;;;;8.43;5.43;;;;;;;;;;5071372;28;21332;-68
2021/09/25 03:07:44;;;;;;;9.43;5.80;;;;;;;;;;5071757;28;20568;-71
2021/09/25 03:10:11;;;;;;;9.80;6.50;;;;;;;;;;5071519;28;20445;-68
2021/09/25 03:12:39;;;;;;;8.00;5.80;;;;;;;;;;5070917;28;20487;-68
2021/09/25 03:15:07;;;;;;;7.67;6.27;;;;;;;;;;5071799;28;20445;-71
2021/09/25 03:17:34;;;;;;;6.47;5.20;;;;;;;;;;5071490;28;20450;-68
2021/09/25 03:20:01;;;;;;;7.43;6.20;;;;;;;;;;5071447;28;20820;-68
2021/09/25 03:22:30;;;;;;;10.27;6.20;;;;;;;;;;5072204;28;20445;-68
2021/09/25 03:24:57;;;;;;;8.83;6.20;;;;;;;;;;5071912;28;20965;-68
2021/09/25 03:27:26;;;;;;;7.63;6.40;;;;;;;;;;5071610;28;20453;-68
2021/09/25 03:29:53;;;;;;;7.17;5.60;;;;;;;;;;5070437;28;21351;-68
2021/09/25 03:32:20;;;;;;;6.17;5.40;;;;;;;;;;5071328;28;20483;-68
2021/09/25 03:34:47;;;;;;;7.40;5.90;;;;;;;;;;5070836;28;20479;-68
2021/09/25 03:37:14;;;;;;;8.40;6.40;;;;;;;;;;5071332;28;20563;-68
2021/09/25 03:39:43;;;;;;;8.40;5.97;;;;;;;;;;5064650;28;20521;-68
2021/09/25 03:42:10;;;;;;;7.30;5.87;;;;;;;;;;5070700;28;20438;-68
2021/09/25 03:44:37;;;;;;;9.07;6.47;;;;;;;;;;5070502;28;20532;-68
2021/09/25 03:47:04;;;;;;;9.07;6.90;;;;;;;;;;5071049;28;20569;-68
2021/09/25 03:49:32;;;;;;;9.03;5.87;;;;;;;;;;5070207;28;20945;-68
2021/09/25 03:51:59;;;;;;;7.97;6.67;;;;;;;;;;5071824;28;20920;-69
2021/09/25 03:54:26;;;;;;;6.23;5.40;;;;;;;;;;5071266;28;20529;-72
2021/09/25 03:56:55;;;;;;;8.17;6.17;;;;;;;;;;5070242;28;20457;-70
2021/09/25 03:59:22;;;;;;;6.73;5.93;;;;;;;;;;5070114;28;20959;-67
2021/09/25 04:01:49;;;;;;;7.57;6.37;;;;;;;;;;5069722;28;20806;-67
2021/09/25 04:04:16;;;;;;;9.23;6.67;;;;;;;;;;5070843;28;20552;-68
2021/09/25 04:06:43;;;;;;;8.90;6.63;;;;;;;;;;5070364;28;20481;-67
2021/09/25 04:09:10;;;;;;;9.10;6.20;;;;;;;;;;5070874;28;20532;-67
2021/09/25 04:11:38;;;;;;;7.97;6.40;;;;;;;;;;5069778;28;20546;-67
2021/09/25 04:14:06;;;;;;;6.60;5.50;;;;;;;;;;5070972;28;20499;-68
2021/09/25 04:16:33;;;;;;;6.63;5.37;;;;;;;;;;5070035;28;20960;-69
2021/09/25 04:19:00;;;;;;;9.40;7.20;;;;;;;;;;5070777;28;20452;-68
2021/09/25 04:21:29;;;;;;;10.40;6.67;;;;;;;;;;5069733;28;20544;-68
2021/09/25 04:23:57;;;;;;;10.67;6.27;;;;;;;;;;5071072;28;20480;-67
2021/09/25 04:26:24;;;;;;;9.10;6.93;;;;;;;;;;5070259;28;21001;-67
2021/09/25 04:28:51;;;;;;;5.80;5.20;;;;;;;;;;5070572;28;20458;-68
2021/09/25 04:31:19;;;;;;;6.90;5.70;;;;;;;;;;5070193;28;20528;-67
2021/09/25 04:33:47;;;;;;;6.30;5.00;;;;;;;;;;5069477;28;20569;-69
2021/09/25 04:36:14;;;;;;;9.63;6.13;;;;;;;;;;5069988;28;20449;-67
2021/09/25 04:38:41;;;;;;;9.00;6.77;;;;;;;;;;5069133;28;20449;-68
2021/09/25 04:41:08;;;;;;;9.53;6.50;;;;;;;;;;5057694;28;20437;-67
2021/09/25 04:43:35;;;;;;;7.63;5.80;;;;;;;;;;5070303;28;20459;-67
2021/09/25 04:46:02;;;;;;;7.30;5.63;;;;;;;;;;5070211;28;20449;-67
2021/09/25 04:48:31;;;;;;;7.67;5.67;;;;;;;;;;5069244;28;20460;-73
2021/09/25 04:50:58;;;;;;;9.10;6.53;;;;;;;;;;5070467;28;20448;-67
2021/09/25 04:53:25;;;;;;;8.13;5.83;;;;;;;;;;5070426;28;20488;-67
2021/09/25 04:55:52;;;;;;;8.77;5.90;;;;;;;;;;5069296;28;20528;-67
2021/09/25 04:58:23;;;;;;;9.03;6.83;;;;;;;;;;5070076;28;20533;-67
2021/09/25 05:00:50;;;;;;;9.70;6.80;;;;;;;;;;5073380;28;20452;-67
2021/09/25 05:03:17;;;;;;;8.60;6.20;;;;;;;;;;5069736;28;20455;-67
2021/09/25 05:05:46;;;;;;;7.90;5.73;;;;;;;;;;5069318;28;20548;-68
2021/09/25 05:08:13;;;;;;;8.90;8.00;;;;;;;;;;5070257;28;20469;-67
2021/09/25 05:10:40;;;;;;;7.17;5.30;;;;;;;;;;5068807;28;20454;-69
2021/09/25 05:13:07;;;;;;;8.40;5.67;;;;;;;;;;5069734;28;20517;-68
2021/09/25 05:15:34;;;;;;;9.13;6.33;;;;;;;;;;5068957;28;20454;-67
2021/09/25 05:18:02;;;;;;;5.77;5.10;;;;;;;;;;5070028;28;20458;-68
2021/09/25 05:20:29;;;;;;;11.27;5.70;;;;;;;;;;5069374;28;20453;-70
2021/09/25 05:22:57;;;;;;;9.70;5.97;;;;;;;;;;5069955;28;20477;-67
2021/09/25 05:25:25;;;;;;;6.20;5.60;;;;;;;;;;5069823;28;20877;-67
2021/09/25 05:27:52;;;;;;;8.13;5.73;;;;;;;;;;5068691;28;20540;-67
2021/09/25 05:30:19;;;;;;;7.13;5.90;;;;;;;;;;5068984;28;20488;-67
2021/09/25 05:32:46;;;;;;;7.50;6.00;;;;;;;;;;5068796;28;20564;-73
2021/09/25 05:35:13;;;;;;;8.03;6.50;;;;;;;;;;5069550;28;20529;-67
2021/09/25 05:37:41;;;;;;;8.50;6.27;;;;;;;;;;5068632;28;20471;-67
2021/09/25 05:40:10;;;;;;;8.67;6.90;;;;;;;;;;5069237;28;20460;-67
2021/09/25 05:42:37;;;;;;;6.97;6.27;;;;;;;;;;5068715;28;20450;-67
2021/09/25 05:45:04;;;;;;;8.27;6.03;;;;;;;;;;5069165;28;20453;-67
2021/09/25 05:47:32;;;;;;;6.87;5.77;;;;;;;;;;5068646;28;20529;-71
2021/09/25 05:49:59;;;;;;;7.50;6.20;;;;;;;;;;5069004;28;20461;-71
2021/09/25 05:52:26;;;;;;;7.53;5.70;;;;;;;;;;5069499;28;20477;-73
2021/09/25 05:54:53;;;;;;;9.33;6.83;;;;;;;;;;5069045;28;20524;-67
2021/09/25 05:57:22;;;;;;;8.70;6.53;;;;;;;;;;5069517;28;20532;-67
2021/09/25 05:59:49;;;;;;;8.33;6.90;;;;;;;;;;5067898;28;20451;-67
2021/09/25 06:02:16;;;;;;;7.33;6.40;;;;;;;;;;5069019;28;20942;-67
2021/09/25 06:04:43;;;;;;;7.30;5.53;;;;;;;;;;5069273;28;21016;-67
2021/09/25 06:07:11;;;;;;;8.13;6.23;;;;;;;;;;5072964;28;20473;-68
2021/09/25 06:09:39;;;;;;;7.83;5.90;;;;;;;;;;5072168;28;20468;-67
2021/09/25 06:12:07;;;;;;;8.10;5.77;;;;;;;;;;5073180;28;20536;-70
2021/09/25 06:14:35;;;;;;;7.10;5.97;;;;;;;;;;5072297;28;20489;-68
2021/09/25 06:17:03;;;;;;;6.93;5.50;;;;;;;;;;5072810;28;20437;-67
2021/09/25 06:19:30;;;;;;;7.57;6.07;;;;;;;;;;5071815;28;20453;-73
2021/09/25 06:21:57;;;;;;;7.60;5.97;;;;;;;;;;5073345;28;20526;-67
2021/09/25 06:24:24;;;;;;;7.67;6.43;;;;;;;;;;5072812;28;20484;-67
2021/09/25 06:26:52;;;;;;;7.60;5.90;;;;;;;;;;5071506;28;20800;-69
2021/09/25 06:29:19;;;;;;;7.13;5.87;;;;;;;;;;5072009;28;20946;-70
2021/09/25 06:31:48;;;;;;;7.23;6.07;;;;;;;;;;5061367;28;20463;-71
2021/09/25 06:34:15;;;;;;;8.50;6.90;;;;;;;;;;5072729;28;20516;-70
2021/09/25 06:36:42;;;;;;;7.07;6.00;;;;;;;;;;5072204;28;20536;-68
2021/09/25 06:39:09;;;;;;;7.00;5.80;;;;;;;;;;5069586;28;20470;-68
2021/09/25 06:41:37;;;;;;;8.30;6.27;;;;;;;;;;5070995;28;20449;-70
2021/09/25 06:44:04;;;;;;;7.77;6.80;;;;;;;;;;5071614;28;20532;-68
2021/09/25 06:46:31;;;;;;;6.90;5.60;;;;;;;;;;5070923;28;20485;-73
2021/09/25 06:49:00;;;;;;;7.73;6.50;;;;;;;;;;5072155;28;20996;-68
2021/09/25 06:51:27;;;;;;;8.30;6.50;;;;;;;;;;5066608;28;20528;-68
2021/09/25 06:53:55;;;;;;;8.43;6.23;;;;;;;;;;5072011;28;20481;-68
2021/09/25 06:56:23;;;;;;;9.73;6.80;;;;;;;;;;5072384;28;20529;-68
2021/09/25 06:58:50;;;;;;;12.33;6.20;;;;;;;;;;5072284;28;20863;-67
2021/09/25 07:01:17;;;;;;;9.33;7.27;;;;;;;;;;5072145;28;20511;-70
2021/09/25 07:03:44;;;;;;;7.47;6.50;;;;;;;;;;5071325;28;20457;-70
2021/09/25 07:06:13;;;;;;;8.17;6.73;;;;;;;;;;5071772;28;20870;-70
2021/09/25 07:08:40;;;;;;;11.93;6.73;;;;;;;;;;5071675;28;20473;-71
2021/09/25 07:11:07;;;;;;;8.20;6.90;;;;;;;;;;5071734;28;20565;-71
2021/09/25 07:13:34;;;;;;;10.80;7.30;;;;;;;;;;5072116;28;20496;-70
2021/09/25 07:16:02;;;;;;;7.60;5.60;;;;;;;;;;5071505;28;20449;-71
2021/09/25 07:18:29;;;;;;;13.50;6.87;;;;;;;;;;5071908;28;20477;-69
2021/09/25 07:20:56;;;;;;;13.87;10.80;;;;;;;;;;5068615;28;20503;-70
2021/09/25 07:23:24;;;;;;;5.70;4.97;;;;;;;;;;5071871;28;20887;-70
2021/09/25 07:25:51;;;;;;;6.73;6.03;;;31.80;1.00;;;;;;5069173;28;20484;-70
2021/09/25 07:28:18;;;;;;;6.23;5.60;;;14.00;99.90;;;;;;5072078;28;20867;-70
2021/09/25 07:30:48;;;;;;;5.97;4.80;;;;;;;;;;5071040;28;20450;-70
2021/09/25 07:33:16;;;;;;;9.60;6.63;;;;;;;;;;5072249;28;20481;-70
2021/09/25 07:35:43;;;;;;;7.77;5.80;;;;;;;;;;5071300;28;20489;-70
2021/09/25 07:38:10;;;;;;;8.00;6.70;;;;;;;;;;5071943;28;20945;-70
2021/09/25 07:40:38;;;;;;;8.60;6.20;;;;;;;;;;5070999;28;20541;-70
2021/09/25 07:43:06;;;;;;;6.23;5.27;;;;;;;;;;5071931;28;20467;-70
2021/09/25 07:45:33;;;;;;;8.07;5.07;;;;;;;;;;5071448;28;20528;-70
2021/09/25 07:48:01;;;;;;;7.10;5.07;;;;;;;;;;5071631;28;20473;-70
2021/09/25 07:50:28;;;;;;;8.53;5.50;;;;;;;;;;5070921;28;20524;-70
2021/09/25 07:52:56;;;;;;;8.77;6.47;;;;;;;;;;5070663;28;20484;-70
2021/09/25 07:55:24;;;;;;;23.70;17.37;;;;;;;;;;5071313;28;20454;-70
2021/09/25 07:57:53;;;;;;;7.00;5.10;;;;;;;;;;5069105;28;20758;-71
2021/09/25 08:00:20;;;;;;;6.63;4.67;;;;;;;;;;5070334;28;20550;-71
2021/09/25 08:02:47;;;;;;;6.63;5.20;;;;;;;;;;5074464;28;20441;-72
2021/09/25 08:05:15;;;;;;;8.20;4.93;;;;;;;;;;5070653;28;20869;-70
2021/09/25 08:07:42;;;;;;;5.80;4.73;;;;;;;;;;5070243;28;20509;-69
2021/09/25 08:10:10;;;;;;;7.40;4.50;;;;;;;;;;5070767;28;20510;-69
2021/09/25 08:12:37;;;;;;;5.23;4.63;;;;;;;;;;5070505;28;20446;-69
2021/09/25 08:15:07;;;;;;;7.47;6.33;;;;;;;;;;5070455;28;21139;-70
2021/09/25 08:17:34;;;;;;;8.00;7.17;;;;;;;;;;5069805;28;20524;-70
2021/09/25 08:20:02;;;;;;;7.00;6.30;;;;;;;;;;5070686;28;20522;-70
2021/09/25 08:22:29;;;;;;;9.20;7.70;;;;;;;;;;5070964;28;20975;-70
2021/09/25 08:24:56;;;;;;;8.40;6.50;;;;;;;;;;5070942;28;20446;-70
2021/09/25 08:27:23;;;;;;;8.70;6.50;;;;;;;;;;5070429;28;20624;-70
2021/09/25 08:29:50;;;;;;;8.03;6.37;;;;;;;;;;5069035;28;21075;-71
2021/09/25 08:32:19;;;;;;;11.70;7.70;;;;;;;;;;5070255;28;20480;-71
2021/09/25 08:34:46;;;;;;;9.27;6.50;;;;;;;;;;5070827;28;20603;-75
2021/09/25 08:37:15;;;;;;;8.97;6.57;;;;;;;;;;5069467;28;21053;-70
2021/09/25 08:39:42;;;;;;;6.90;6.20;;;;;;;;;;5069539;28;20429;-71
2021/09/25 08:42:12;;;;;;;9.73;6.53;;;;;;;;;;5070218;28;20507;-71
2021/09/25 08:44:40;;;;;;;8.13;6.33;;;;;;;;;;5069845;28;20508;-70
2021/09/25 08:47:07;;;;;;;10.23;6.60;;;;;;;;;;5070185;28;20536;-71
2021/09/25 08:49:36;;;;;;;7.67;6.37;;;;;;;;;;5070255;28;20473;-70
2021/09/25 08:52:03;;;;;;;7.43;5.87;;;;;;;;;;5071640;28;20477;-70
2021/09/25 08:54:30;;;;;;;7.33;5.90;;;;;;;;;;5075833;28;20517;-72
2021/09/25 08:56:57;;;;;;;8.97;7.93;;;;;;;;;;5071446;28;20442;-69
2021/09/25 08:59:24;;;;;;;9.47;6.50;;;;;;;;;;5074308;28;20484;-70
2021/09/25 09:01:52;;;;;;;6.93;6.03;;;;;;;;;;5070278;28;20449;-70
2021/09/25 09:04:19;;;;;;;11.40;6.87;;;;;;;;;;5069740;28;20563;-70
2021/09/25 09:06:50;;;;;;;6.87;5.33;;;;;;;;;;5067321;28;20495;-73
2021/09/25 09:09:17;;;;;;;9.00;5.53;;;;;;;;;;5069843;28;20536;-70
2021/09/25 09:11:46;;;;;;;10.00;7.37;;;;;;;;;;5068922;28;20532;-70
2021/09/25 09:14:14;;;;;;;7.27;6.47;;;;;;;;;;5070110;28;20484;-70
2021/09/25 09:16:41;;;;;;;7.73;6.23;;;;;;;;;;5068703;28;20452;-70
2021/09/25 09:19:08;;;;;;;6.73;6.07;;;;;;;;;;5069640;28;20884;-70
2021/09/25 09:21:36;;;;;;;7.77;6.07;;;;;;;;;;5069000;28;20476;-70
2021/09/25 09:24:06;;;;;;;6.73;5.80;;;;;;;;;;5069713;28;20442;-70
2021/09/25 09:26:34;;;;;;;6.00;5.40;;;;;;;;;;5069714;28;20506;-70
2021/09/25 09:29:03;;;;;;;6.43;5.73;;;;;;;;;;5070336;28;20451;-70
2021/09/25 09:31:30;;;;;;;7.63;5.77;;;;;;;;;;5069668;28;20878;-70
2021/09/25 09:33:59;;;;;;;7.83;6.07;;;;;;;;;;5069861;28;20532;-70
2021/09/25 09:36:27;;;;;;;10.40;5.53;;;;;;;;;;5070049;28;21040;-72
2021/09/25 09:38:56;;;;;;;5.27;4.73;;;;;;;;;;5066661;28;20519;-70
2021/09/25 09:41:27;;;;;;;7.30;5.93;;;;;;;;;;5059423;28;20532;-70
2021/09/25 09:43:55;;;;;;;6.73;5.50;;;;;;;;;;5070165;28;20453;-70
2021/09/25 09:46:35;;;;;;;4.13;3.73;;;;;;;;;;5070204;28;20528;-70
2021/09/25 09:49:02;;;;;;;8.23;4.30;;;;;;;;;;5069943;28;21004;-70
2021/09/25 09:51:40;;;;;;;5.03;4.53;;;;;;;;;;5069706;28;20528;-73
2021/09/25 09:54:11;;;;;;;4.73;4.10;;;;;;;;;;5069660;28;20678;-71
2021/09/25 09:56:41;;;;;;;5.80;4.40;;;;;;;;;;5068820;28;20437;-70
2021/09/25 09:59:08;;;;;;;8.17;5.20;;;;;;;;;;5069691;28;20441;-70
2021/09/25 10:01:36;;;;;;;7.00;4.20;;;;;;;;;;5069162;28;20481;-70
2021/09/25 10:04:04;;;;;;;9.90;4.53;;;;;;;;;;5069794;28;20449;-70
2021/09/25 10:06:33;;;;;;;6.03;5.23;;;;;;;;;;5068809;28;20504;-70
2021/09/25 10:09:02;;;;;;;6.30;4.73;;;;;;;;;;5069716;28;20997;-71
2021/09/25 10:11:31;;;;;;;9.00;6.40;;;;;;;;;;5069288;28;20941;-70
2021/09/25 10:14:01;;;;;;;4.67;4.27;;;;;;;;;;5069730;28;20496;-70
2021/09/25 10:16:28;;;;;;;5.20;4.70;;;;;;;;;;5069475;28;20441;-70
2021/09/25 10:18:56;;;;;;;5.57;4.07;;;;;;;;;;5069670;28;20452;-70
2021/09/25 10:21:24;;;;;;;6.47;4.07;;;;;;;;;;5069656;28;20447;-70
2021/09/25 10:23:54;;;;;;;6.50;4.80;;;;;;;;;;5069050;28;20445;-71
2021/09/25 10:26:22;;;;;;;8.00;4.67;;;;;;;;;;5069330;28;20541;-70
2021/09/25 10:28:57;;;;;;;7.57;3.87;;;;;;;;;;5068159;28;20453;-71
2021/09/25 10:31:25;;;;;;;5.67;4.70;;;;;;;;;;5069430;28;20991;-70
2021/09/25 10:34:07;;;;;;;5.67;5.10;;;;;;;;;;5068659;28;20532;-71
2021/09/25 10:36:42;;;;;;;5.63;5.13;;;;;;;;;;5066963;28;20568;-71
2021/09/25 10:39:28;;;;;;;5.20;4.70;;;;;;;;;;5069015;28;20520;-71
2021/09/25 10:42:09;;;;;;;5.90;5.30;;;;;;;;;;5069054;28;20456;-70
2021/09/25 10:44:42;;;;;;;4.53;4.13;;;;;;;;;;5068203;28;20457;-71
2021/09/25 10:47:12;;;;;;;5.67;4.33;;;;;;;;;;5068826;28;20539;-70
2021/09/25 10:49:53;;;;;;;4.77;4.37;;;;;;;;;;5068192;28;20524;-70
2021/09/25 10:52:22;;;;;;;5.30;4.80;;;;;;;;;;5072194;28;20529;-71
2021/09/25 10:55:18;;;;;;;6.03;5.27;;;;;;;;;;5071729;28;20703;-70
2021/09/25 10:57:45;;;;;;;4.67;4.20;;;;;;;;;;5071763;28;20442;-72
2021/09/25 11:00:19;;;;;;;6.17;4.00;;;;;;;;;;5072662;28;20522;-71
2021/09/25 11:02:48;;;;;;;4.87;4.37;;;;;;;;;;5071768;28;20456;-71
2021/09/25 11:05:16;;;;;;;5.43;4.93;;;;;;;;;;5072260;28;20791;-72
2021/09/25 11:07:44;;;;;;;4.50;4.10;;;;;;;;;;5071742;28;20473;-71
2021/09/25 11:10:11;;;;;;;5.00;4.27;;;;;;;;;;5072185;28;20453;-71
2021/09/25 11:12:48;;;;;;;6.70;4.37;;;;;;;;;;5071452;28;20453;-71
2021/09/25 11:15:30;;;;;;;5.90;4.20;;;;;;;;;;5071909;28;20849;-71
2021/09/25 11:18:12;;;;;;;6.00;4.07;;;;;;;;;;5070565;28;20461;-71
2021/09/25 11:20:40;;;;;;;4.20;3.80;;;;;;;;;;5071398;28;21009;-71
2021/09/25 11:23:07;;;;;;;4.50;3.93;;;;;;;;;;5071988;28;20457;-71
2021/09/25 11:25:35;;;;;;;4.27;3.87;;;;;;;;;;5071213;28;20564;-71
2021/09/25 11:28:06;;;;;;;6.90;3.80;;;;;;;;;;5071828;28;20532;-71
2021/09/25 11:30:33;;;;;;;4.60;4.20;;;;;;;;;;5071346;28;20499;-74
2021/09/25 11:33:01;;;;;;;3.87;3.23;;;;;;;;;;5071805;28;20936;-71
2021/09/25 11:35:31;;;;;;;5.33;4.10;;;;;;;;;;5071706;28;20503;-71
2021/09/25 11:38:01;;;;;;;4.60;4.00;;;;;;;;;;5071674;28;20445;-71
2021/09/25 11:40:29;;;;;;;6.00;4.23;;;;;;;;;;5071886;28;20441;-71
2021/09/25 11:43:03;;;;;;;4.30;3.80;;;;;;;;;;5072126;28;20449;-71
2021/09/25 11:45:31;;;;;;;4.53;3.93;;;;;;;;;;5071110;28;20452;-72
2021/09/25 11:47:58;;;;;;;6.17;4.40;;;;;;;;;;5071275;28;20453;-71
2021/09/25 11:50:26;;;;;;;7.13;6.33;;;;;;;;;;5072021;28;20528;-71
2021/09/25 11:52:54;;;;;;;4.60;4.20;;;;;;;;;;5070992;28;20532;-71
2021/09/25 11:55:25;;;;;;;6.30;4.03;;;;;;;;;;5071437;28;21056;-71
2021/09/25 11:57:53;;;;;;;4.90;4.50;;;;;;;;;;5070676;28;20452;-71
2021/09/25 12:00:25;;;;;;;4.93;4.53;;;;;;;;;;5071295;28;20813;-71
2021/09/25 12:02:53;;;;;;;4.50;4.10;;;;;;;;;;5070200;28;20450;-71
2021/09/25 12:05:28;;;;;;;4.40;3.83;;;;;;;;;;5071153;28;20963;-71
2021/09/25 12:07:56;;;;;;;4.47;4.07;;;;;;;;;;5070715;28;20473;-72
2021/09/25 12:10:25;;;;;;;4.80;4.40;;;;;;;;;;5071235;28;20456;-71
2021/09/25 12:12:56;;;;;;;4.40;3.80;;;;;;;;;;5070844;28;20528;-71
2021/09/25 12:15:25;;;;;;;3.43;3.13;;;;;;;;;;5071582;28;20484;-71
2021/09/25 12:18:08;;;;;;;3.77;3.47;;;;;;;;;;5071426;28;20453;-70
2021/09/25 12:20:36;;;;;;;5.50;3.40;;;;;;;;;;5079339;28;20918;-70
2021/09/25 12:23:06;;;;;;;3.67;3.20;;;;;;;;;;5076019;28;20492;-71
2021/09/25 12:25:36;;;;;;;3.90;3.43;;;;;;;;;;5072242;28;20864;-74
2021/09/25 12:28:03;;;;;;;4.63;3.30;;;;;;;;;;5070561;28;20445;-71
2021/09/25 12:30:30;;;;;;;3.63;3.30;;;;;;;;;;5070338;28;20452;-75
2021/09/25 12:33:01;;;;;;;4.27;3.87;;;;;;;;;;5070475;28;20504;-71
2021/09/25 12:35:29;;;;;;;4.30;3.07;;;;;;;;;;5070111;28;21057;-71
2021/09/25 12:37:56;;;;;;;3.30;3.07;;;;;;;;;;5069626;28;20536;-71
2021/09/25 12:40:24;;;;;;;4.93;3.10;;;;;;;;;;5056937;28;20478;-71
2021/09/25 12:42:53;;;;;;;3.63;3.33;;;;;;;;;;5069972;28;20524;-71
2021/09/25 12:45:20;;;;;;;3.93;3.53;;;;;;;;;;5070907;28;20495;-71
2021/09/25 12:47:47;;;;;;;4.03;3.00;;;;;;;;;;5069892;28;20449;-72
2021/09/25 12:50:18;;;;;;;6.67;4.10;;;;;;;;;;5070965;28;20871;-71
2021/09/25 12:52:46;;;;;;;4.27;3.87;;;;;;;;;;5070094;28;20552;-72
2021/09/25 12:55:15;;;;;;;3.80;3.50;;;;;;;;;;5070411;28;20481;-72
2021/09/25 12:57:42;;;;;;;3.87;3.47;;;;;;;;;;5069986;28;20473;-71
2021/09/25 13:00:11;;;;;;;4.70;3.87;;;;;;;;;;5070223;28;20533;-71
2021/09/25 13:02:39;;;;;;;4.27;3.87;;;;;;;;;;5069637;28;20488;-72
2021/09/25 13:05:06;;;;;;;3.30;3.00;;;;;;;;;;5069841;28;21304;-71
2021/09/25 13:07:34;;;;;;;3.63;3.33;;;;;;;;;;5068885;28;20481;-71
2021/09/25 13:10:02;;;;;;;4.13;3.33;;;;;;;;;;5070308;28;20438;-71
2021/09/25 13:12:30;;;;;;;5.37;3.83;;;;;;;;;;5069678;28;20449;-74
2021/09/25 13:15:03;;;;;;;5.07;4.20;;;;;;;;;;5069248;28;20487;-71
2021/09/25 13:17:32;;;;;;;3.90;3.10;;;;;;;;;;5069180;28;20438;-75
2021/09/25 13:19:59;;;;;;;3.20;2.90;;;;;;;;;;5070497;28;20548;-71
2021/09/25 13:22:26;;;;;;;3.77;3.43;;;;;;;;;;5070386;28;20448;-72
2021/09/25 13:24:55;;;;;;;4.10;3.70;;;;;;;;;;5069600;28;20468;-71
2021/09/25 13:27:22;;;;;;;3.40;3.10;;;;;;;;;;5069439;28;20536;-71
2021/09/25 13:29:52;;;;;;;3.53;3.23;;;;;;;;;;5069422;28;20528;-71
2021/09/25 13:32:19;;;;;;;8.07;3.40;;;;;;;;;;5069822;28;20453;-71
2021/09/25 13:34:48;;;;;;;3.47;2.83;;;;;;;;;;5069423;28;20548;-73
2021/09/25 13:37:15;;;;;;;5.07;3.27;;;;;;;;;;5069816;28;20485;-72
2021/09/25 13:39:42;;;;;;;4.70;4.30;;;;;;;;;;5069183;28;20929;-71
2021/09/25 13:42:10;;;;;;;3.23;2.93;;;;;;;;;;5069664;28;20445;-71
2021/09/25 13:44:37;;;;;;;2.90;2.47;;;;;;;;;;5069094;28;20449;-72
2021/09/25 13:47:05;;;;;;;2.90;2.70;;;;;;;;;;5069378;28;20444;-71
2021/09/25 13:49:32;;;;;;;3.00;2.70;;;;;;;;;;5069384;28;20445;-75
2021/09/25 13:52:00;;;;;;;3.07;2.77;;;;;;;;;;5069867;28;20449;-72
2021/09/25 13:54:27;;;;;;;4.37;3.60;;;;;;;;;;5069489;28;20519;-72
2021/09/25 13:56:55;;;;;;;3.40;2.80;;;;;;;;;;5068322;28;20484;-71
2021/09/25 13:59:22;;;;;;;5.67;3.87;;;;;;;;;;5069443;28;20444;-72
2021/09/25 14:01:49;;;;;;;3.87;3.50;;;;;;;;;;5068787;28;20567;-72
2021/09/25 14:04:16;;;;;;;3.40;3.10;;;;;;;;;;5069379;28;20532;-72
2021/09/25 14:06:44;;;;;;;3.97;3.60;;;;;;;;;;5068501;28;20559;-72
2021/09/25 14:09:12;;;;;;;3.60;3.13;;;;;;;;;;5068495;28;20818;-72
2021/09/25 14:11:39;;;;;;;7.23;3.60;;;;;;;;;;5068211;28;20290;-70
2021/09/25 14:14:06;;;;;;;3.70;3.40;;;;;;;;;;5065946;28;20294;-75
2021/09/25 14:16:34;;;;;;;3.73;3.10;;;;;;;;;;5065416;28;20736;-72
2021/09/25 14:19:03;;;;;;;3.40;3.10;;;;;;;;;;5062559;28;20537;-72
2021/09/25 14:21:34;;;;;;;4.20;2.93;;;;;;;;;;5066395;28;20736;-75
2021/09/25 14:24:02;;;;;;;2.80;2.60;;;;;;;;;;5066924;28;20460;-73
2021/09/25 14:26:31;;;;;;;3.23;2.90;;;;;;;;;;5068308;28;20441;-72
2021/09/25 14:29:04;;;;;;;3.33;2.80;;;;;;;;;;5071131;28;20466;-72
2021/09/25 14:31:31;;;;;;;2.80;2.60;;;;;;;;;;5081324;28;21260;-75
2021/09/25 14:33:59;;;;;;;4.83;2.60;;;;;;;;;;5072968;28;20444;-72
2021/09/25 14:36:26;;;;;;;2.43;2.23;;;;;;;;;;5059631;28;20913;-72
2021/09/25 14:38:53;;;;;;;4.20;3.37;;;;;;;;;;5069697;28;20451;-72
2021/09/25 14:41:20;;;;;;;2.70;2.50;;;;;;;;;;5070203;28;20448;-72
2021/09/25 14:43:49;;;;;;;3.10;2.80;;;;;;;;;;5069829;28;20467;-72
2021/09/25 14:46:16;;;;;;;3.10;2.70;;;;;;;;;;5069881;28;20539;-72